Time;durP1;ratioP1;P1;durP2;ratioP2;P2;SDS_P1;SDS_P2;PMS_P1;PMS_P2;Temp;Humidity;BMP_temperature;BMP_pressure;BME280_temperature;BME280_humidity;BME280_pressure;Samples;Min_cycle;Max_cycle;Signal;HPM_P1;HPM_P2
2022/05/26 00:01:43;;;;;;;;;;;;;;;19.29;100.00;98261.59;5081863;28;19925;-61
2022/05/26 00:04:09;;;;;;;;;;;;;;;19.30;100.00;98263.22;5080874;28;19924;-60
2022/05/26 00:06:36;;;;;;;;;;;;;;;19.31;100.00;98261.31;5078381;28;19939;-60
2022/05/26 00:09:04;;;;;;;;;;;;;;;19.07;100.00;98264.34;5078385;28;19971;-60
2022/05/26 00:11:31;;;;;;;;;;;;;;;18.84;100.00;98265.47;5070232;28;20644;-60
2022/05/26 00:13:59;;;;;;;;;;;;;;;18.91;100.00;98263.09;5078139;28;19925;-60
2022/05/26 00:16:25;;;;;;;;;;;;;;;19.04;100.00;98269.56;5081237;28;19934;-60
2022/05/26 00:18:52;;;;;;;;;;;;;;;19.04;100.00;98275.78;5081692;28;20438;-61
2022/05/26 00:21:19;;;;;;;;;;;;;;;19.08;100.00;98270.56;5079772;28;19929;-61
2022/05/26 00:23:45;;;;;;;;;;;;;;;19.02;100.00;98278.00;5078365;28;19924;-61
2022/05/26 00:26:13;;;;;;;;;;;;;;;19.07;100.00;98275.16;5079097;28;19952;-61
2022/05/26 00:28:39;;;;;;;;;;;;;;;19.08;100.00;98273.25;5081577;28;20012;-60
2022/05/26 00:31:05;;;;;;;;;;;;;;;19.05;100.00;98277.38;5081388;28;19980;-60
2022/05/26 00:33:32;;;;;;;;;;;;;;;19.06;100.00;98284.41;5078095;28;19936;-60
2022/05/26 00:36:03;;;;;;;;;;;;;;;19.01;100.00;98275.59;5080644;28;19931;-60
2022/05/26 00:38:29;;;;;;;;;;;;;;;18.85;100.00;98286.00;5074209;28;19925;-60
2022/05/26 00:41:00;;;;;;;;;;;;;;;18.77;100.00;98284.84;5081995;28;20754;-60
2022/05/26 00:43:29;;;;;;;;;;;;;;;18.80;100.00;98292.34;5087757;28;19928;-61
2022/05/26 00:45:57;;;;;;;;;;;;;;;18.83;100.00;98290.91;5081752;28;19927;-60
2022/05/26 00:48:25;;;;;;;;;;;;;;;18.85;100.00;98278.69;5084326;28;20354;-60
2022/05/26 00:50:57;;;;;;;;;;;;;;;18.88;100.00;98282.66;5085136;28;19924;-61
2022/05/26 00:53:29;;;;;;;;;;;;;;;18.94;100.00;98280.66;5082179;28;19991;-61
2022/05/26 00:55:57;;;;;;;;;;;;;;;18.95;100.00;98277.63;5081529;28;19927;-61
2022/05/26 00:58:28;;;;;;;;;;;;;;;18.91;100.00;98276.63;5084197;28;19935;-60
2022/05/26 01:00:57;;;;;;;;;;;;;;;18.92;100.00;98289.06;5084893;28;20011;-60
2022/05/26 01:03:33;;;;;;;;;;;;;;;18.94;100.00;98286.06;5082202;28;19975;-61
2022/05/26 01:06:02;;;;;;;;;;;;;;;18.93;100.00;98285.28;5081554;28;19956;-62
2022/05/26 01:08:32;;;;;;;;;;;;;;;18.94;100.00;98286.84;5084732;28;19925;-60
2022/05/26 01:10:59;;;;;;;;;;;;;;;18.92;100.00;98282.84;5084994;28;19929;-60
2022/05/26 01:13:25;;;;;;;;;;;;;;;18.85;100.00;98273.25;5081656;28;19960;-60
2022/05/26 01:15:54;;;;;;;;;;;;;;;18.87;100.00;98286.50;5080065;28;19980;-60
2022/05/26 01:18:28;;;;;;;;;;;;;;;18.86;100.00;98269.47;5083584;28;19993;-61
2022/05/26 01:21:00;;;;;;;;;;;;;;;18.88;100.00;98287.31;5084827;28;19928;-61
2022/05/26 01:23:41;;;;;;;;;;;;;;;18.90;100.00;98280.47;5081430;28;19929;-61
2022/05/26 01:26:26;;;;;;;;;;;;;;;18.86;100.00;98280.28;5081444;28;19931;-61
2022/05/26 01:29:05;;;;;;;;;;;;;;;18.83;100.00;98277.38;5084409;28;19991;-61
2022/05/26 01:31:36;;;;;;;;;;;;;;;18.82;100.00;98273.88;5072890;28;19980;-61
2022/05/26 01:34:07;;;;;;;;;;;;;;;18.79;100.00;98279.91;5080713;28;19935;-61
2022/05/26 01:36:38;;;;;;;;;;;;;;;18.79;100.00;98282.59;5073268;28;19956;-60
2022/05/26 01:39:14;;;;;;;;;;;;;;;18.75;100.00;98280.84;5080566;28;20009;-60
2022/05/26 01:42:01;;;;;;;;;;;;;;;18.76;100.00;98275.09;5084360;28;19920;-61
2022/05/26 01:44:33;;;;;;;;;;;;;;;18.71;100.00;98277.13;5080678;28;19939;-61
2022/05/26 01:47:06;;;;;;;;;;;;;;;18.68;100.00;98275.03;5079966;28;19992;-60
2022/05/26 01:49:37;;;;;;;;;;;;;;;18.70;100.00;98280.94;5072821;28;19993;-61
2022/05/26 01:52:08;;;;;;;;;;;;;;;18.68;100.00;98283.16;5080572;28;19984;-60
2022/05/26 01:54:40;;;;;;;;;;;;;;;18.68;100.00;98285.88;5072835;28;20623;-61
2022/05/26 01:57:09;;;;;;;;;;;;;;;18.66;100.00;98274.56;5079347;28;19952;-61
2022/05/26 01:59:38;;;;;;;;;;;;;;;18.67;100.00;98282.34;5084022;28;19987;-60
2022/05/26 02:02:07;;;;;;;;;;;;;;;18.64;100.00;98276.75;5083483;28;19984;-60
2022/05/26 02:04:35;;;;;;;;;;;;;;;18.62;100.00;98281.69;5072406;28;19964;-60
2022/05/26 02:07:02;;;;;;;;;;;;;;;18.63;100.00;98275.19;5080222;28;19992;-60
2022/05/26 02:09:30;;;;;;;;;;;;;;;18.62;100.00;98274.38;5083399;28;19984;-60
2022/05/26 02:12:02;;;;;;;;;;;;;;;18.62;100.00;98278.97;5081992;28;19950;-60
2022/05/26 02:14:32;;;;;;;;;;;;;;;18.57;100.00;98284.50;5083310;28;19925;-60
2022/05/26 02:17:00;;;;;;;;;;;;;;;18.57;100.00;98279.88;5083560;28;19967;-61
2022/05/26 02:19:29;;;;;;;;;;;;;;;18.57;100.00;98287.22;5080334;28;20070;-61
2022/05/26 02:21:59;;;;;;;;;;;;;;;18.54;100.00;98287.81;5079910;28;19920;-61
2022/05/26 02:24:30;;;;;;;;;;;;;;;18.54;100.00;98288.59;5082879;28;19943;-61
2022/05/26 02:26:56;;;;;;;;;;;;;;;18.53;100.00;98287.03;5083271;28;19952;-61
2022/05/26 02:32:09;;;;;;;;;;;;;;;18.57;100.00;98298.03;5079552;28;19952;-60
2022/05/26 02:34:37;;;;;;;;;;;;;;;18.50;100.00;98286.84;5082709;28;19991;-60
2022/05/26 02:37:05;;;;;;;;;;;;;;;18.52;100.00;98290.81;5082656;28;20063;-60
2022/05/26 02:39:31;;;;;;;;;;;;;;;18.52;100.00;98284.63;5071301;28;19928;-60
2022/05/26 02:41:58;;;;;;;;;;;;;;;18.56;100.00;98288.31;5079062;28;19925;-60
2022/05/26 02:44:26;;;;;;;;;;;;;;;18.52;100.00;98287.31;5081694;28;19999;-60
2022/05/26 02:47:09;;;;;;;;;;;;;;;18.51;100.00;98288.41;5082170;28;20339;-60
2022/05/26 02:49:41;;;;;;;;;;;;;;;18.48;100.00;98289.00;5071470;28;19928;-60
2022/05/26 02:52:16;;;;;;;;;;;;;;;18.45;100.00;98289.59;5078978;28;19968;-60
2022/05/26 02:54:46;;;;;;;;;;;;;;;18.41;100.00;98283.22;5082220;28;19968;-60
2022/05/26 02:57:15;;;;;;;;;;;;;;;18.43;100.00;98289.13;5080632;28;20364;-60
2022/05/26 02:59:46;;;;;;;;;;;;;;;18.42;100.00;98292.91;5077903;28;20039;-59
2022/05/26 03:02:16;;;;;;;;;;;;;;;18.37;100.00;98288.44;5079582;28;19992;-60
2022/05/26 03:04:46;;;;;;;;;;;;;;;18.42;100.00;98284.81;5082141;28;19931;-60
2022/05/26 03:07:17;;;;;;;;;;;;;;;18.42;100.00;98282.09;5081595;28;20019;-60
2022/05/26 03:09:43;;;;;;;;;;;;;;;18.41;100.00;98294.03;5079455;28;19925;-59
2022/05/26 03:12:21;;;;;;;;;;;;;;;18.36;100.00;98292.22;5079587;28;20008;-60
2022/05/26 03:14:47;;;;;;;;;;;;;;;18.35;100.00;98290.66;5082520;28;19991;-60
2022/05/26 03:17:13;;;;;;;;;;;;;;;18.33;100.00;98288.25;5081191;28;19931;-60
2022/05/26 03:19:39;;;;;;;;;;;;;;;18.31;100.00;98295.84;5078967;28;20496;-60
2022/05/26 03:22:07;;;;;;;;;;;;;;;18.31;100.00;98297.75;5079010;28;19921;-60
2022/05/26 03:24:34;;;;;;;;;;;;;;;18.35;100.00;98296.06;5082459;28;19960;-60
2022/05/26 03:27:01;;;;;;;;;;;;;;;18.35;100.00;98301.47;5082254;28;19924;-60
2022/05/26 03:29:27;;;;;;;;;;;;;;;18.35;100.00;98296.84;5079162;28;19950;-60
2022/05/26 03:31:53;;;;;;;;;;;;;;;18.35;100.00;98296.84;5078785;28;20430;-60
2022/05/26 03:42:34;;;;;;;;;;;;;;;18.35;100.00;98323.09;5071947;28;19924;-60
2022/05/26 03:45:02;;;;;;;;;;;;;;;18.37;100.00;98328.19;5081903;28;19951;-60
2022/05/26 03:47:28;;;;;;;;;;;;;;;18.36;100.00;98319.28;5078567;28;19925;-60
2022/05/26 03:49:55;;;;;;;;;;;;;;;18.44;100.00;98321.28;5077443;28;19968;-60
2022/05/26 03:52:22;;;;;;;;;;;;;;;18.35;100.00;98323.88;5080551;28;20392;-60
2022/05/26 03:54:50;;;;;;;;;;;;;;;18.19;100.00;98321.81;5080760;28;19924;-60
2022/05/26 03:57:21;;;;;;;;;;;;;;;18.06;100.00;98326.13;5080013;28;19927;-60
2022/05/26 03:59:48;;;;;;;;;;;;;;;18.07;100.00;98322.31;5078373;28;19988;-60
2022/05/26 04:02:14;;;;;;;;;;;;;;;18.02;100.00;98322.41;5079115;28;19996;-60
2022/05/26 04:04:40;;;;;;;;;;;;;;;18.13;100.00;98323.81;5081846;28;20601;-60
2022/05/26 04:07:07;;;;;;;;;;;;;;;18.20;100.00;98323.38;5081299;28;19956;-60
2022/05/26 04:09:33;;;;;;;;;;;;;;;18.29;100.00;98327.78;5077930;28;19931;-60
2022/05/26 04:12:01;;;;;;;;;;;;;;;18.27;100.00;98337.31;5078176;28;19947;-60
2022/05/26 04:14:27;;;;;;;;;;;;;;;18.26;100.00;98336.50;5081539;28;19925;-60
2022/05/26 04:16:53;;;;;;;;;;;;;;;18.32;100.00;98339.91;5081677;28;19955;-60
2022/05/26 04:19:20;;;;;;;;;;;;;;;18.05;100.00;98332.63;5079334;28;19924;-60
2022/05/26 04:24:26;;;;;;;;;;;;;;;17.53;100.00;98333.06;5080902;28;19929;-60
2022/05/26 04:26:53;;;;;;;;;;;;;;;17.73;100.00;98343.53;5081452;28;19933;-60
2022/05/26 04:29:23;;;;;;;;;;;;;;;17.91;100.00;98339.94;5079747;28;19966;-60
2022/05/26 04:31:49;;;;;;;;;;;;;;;18.04;100.00;98338.34;5078144;28;19936;-60
2022/05/26 04:34:16;;;;;;;;;;;;;;;18.00;100.00;98346.25;5079537;28;20316;-60
2022/05/26 04:36:42;;;;;;;;;;;;;;;17.86;100.00;98350.81;5081968;28;19928;-60
2022/05/26 04:39:09;;;;;;;;;;;;;;;17.97;100.00;98360.38;5080981;28;19944;-60
2022/05/26 04:41:35;;;;;;;;;;;;;;;18.06;100.00;98355.84;5078210;28;19935;-60
2022/05/26 04:44:01;;;;;;;;;;;;;;;18.13;100.00;98358.97;5078242;28;20013;-61
2022/05/26 04:46:29;;;;;;;;;;;;;;;18.14;100.00;98352.44;5081015;28;20076;-60
2022/05/26 04:48:55;;;;;;;;;;;;;;;18.20;100.00;98353.94;5081661;28;19989;-60
2022/05/26 04:51:22;;;;;;;;;;;;;;;18.27;100.00;98364.34;5079155;28;19999;-60
2022/05/26 04:53:48;;;;;;;;;;;;;;;18.28;100.00;98365.97;5078218;28;20027;-60
2022/05/26 04:56:15;;;;;;;;;;;;;;;18.28;100.00;98366.75;5079023;28;20035;-60
2022/05/26 04:58:41;;;;;;;;;;;;;;;18.15;100.00;98370.28;5081535;28;19927;-60
2022/05/26 05:01:12;;;;;;;;;;;;;;;18.15;100.00;98367.56;5080910;28;19959;-61
2022/05/26 05:03:39;;;;;;;;;;;;;;;18.25;100.00;98372.78;5077800;28;19925;-61
2022/05/26 05:06:06;;;;;;;;;;;;;;;18.27;100.00;98375.97;5078026;28;19924;-61
2022/05/26 05:08:33;;;;;;;;;;;;;;;18.29;100.00;98379.16;5081558;28;19960;-61
2022/05/26 05:11:00;;;;;;;;;;;;;;;18.22;100.00;98377.97;5081312;28;20020;-60
2022/05/26 05:13:26;;;;;;;;;;;;;;;18.25;100.00;98382.78;5078292;28;19928;-59
2022/05/26 05:15:56;;;;;;;;;;;;;;;18.18;100.00;98387.78;5078155;28;19992;-60
2022/05/26 05:18:24;;;;;;;;;;;;;;;18.19;100.00;98382.09;5095815;28;19924;-61
2022/05/26 05:20:54;;;;;;;;;;;;;;;18.20;100.00;98391.78;5081449;28;19970;-61
2022/05/26 05:23:20;;;;;;;;;;;;;;;18.21;100.00;98388.00;5080771;28;19960;-61
2022/05/26 05:25:48;;;;;;;;;;;;;;;18.28;100.00;98393.81;5081278;28;19959;-61
2022/05/26 05:28:18;;;;;;;;;;;;;;;18.26;100.00;98398.69;5082547;28;19991;-61
2022/05/26 05:30:49;;;;;;;;;;;;;;;18.34;100.00;98394.50;5084695;28;19939;-61
2022/05/26 05:33:19;;;;;;;;;;;;;;;18.46;100.00;98391.28;5083178;28;19972;-61
2022/05/26 05:35:47;;;;;;;;;;;;;;;18.26;100.00;98396.00;5080932;28;19932;-61
2022/05/26 05:38:16;;;;;;;;;;;;;;;17.84;100.00;98401.66;5081181;28;19935;-60
2022/05/26 05:40:43;;;;;;;;;;;;;;;17.82;100.00;98400.38;5084491;28;19924;-61
2022/05/26 05:43:09;;;;;;;;;;;;;;;17.84;100.00;98415.19;5083807;28;19924;-61
2022/05/26 05:45:37;;;;;;;;;;;;;;;18.15;100.00;98408.13;5080804;28;19928;-60
2022/05/26 05:48:04;;;;;;;;;;;;;;;18.15;100.00;98415.41;5080740;28;19951;-60
2022/05/26 05:50:30;;;;;;;;;;;;;;;18.23;100.00;98415.50;5072530;28;19936;-59
2022/05/26 05:52:57;;;;;;;;;;;;;;;18.25;100.00;98418.75;5081021;28;19929;-60
2022/05/26 05:55:25;;;;;;;;;;;;;;;18.25;100.00;98417.94;5083088;28;19931;-60
2022/05/26 05:57:51;;;;;;;;;;;;;;;18.38;100.00;98424.44;5084435;28;20011;-60
2022/05/26 06:00:18;;;;;;;;;;;;;;;18.21;100.00;98428.53;5082709;28;19984;-60
2022/05/26 06:02:44;;;;;;;;;;;;;;;18.35;100.00;98429.34;5080728;28;19963;-60
2022/05/26 06:05:11;;;;;;;;;;;;;;;18.40;100.00;98433.84;5081254;28;20037;-60
2022/05/26 06:07:40;;;;;;;;;;;;;;;18.42;100.00;98442.47;5083795;28;19925;-60
2022/05/26 06:10:06;;;;;;;;;;;;;;;18.53;100.00;98440.41;5083447;28;19931;-60
2022/05/26 06:12:35;;;;;;;;;;;;;;;18.44;100.00;98442.16;5081602;28;20321;-60
2022/05/26 06:15:01;;;;;;;;;;;;;;;18.50;100.00;98432.88;5083042;28;19967;-60
2022/05/26 06:17:28;;;;;;;;;;;;;;;18.40;100.00;98439.25;5081053;28;19925;-60
2022/05/26 06:19:54;;;;;;;;;;;;;;;18.13;100.00;98433.84;5080551;28;19936;-60
2022/05/26 06:22:21;;;;;;;;;;;;;;;18.05;100.00;98438.03;5082406;28;19921;-60
2022/05/26 06:24:48;;;;;;;;;;;;;;;17.99;100.00;98450.03;5084066;28;19954;-60
2022/05/26 06:30:04;;;;;;;;;;;;;;;18.34;100.00;98454.78;5080180;28;19931;-60
2022/05/26 06:38:03;;;;;;;;;;;;;;;18.80;100.00;98451.19;5083621;28;19946;-60
2022/05/26 06:40:31;;;;;;;;;;;;;;;19.09;100.00;98446.22;5080209;28;19931;-60
2022/05/26 06:42:58;;;;;;;;;;;;;;;19.15;98.37;98463.16;5084925;28;19931;-60
2022/05/26 06:45:25;;;;;;;;;;;;;;;19.27;97.87;98456.09;5081081;28;19924;-60
2022/05/26 06:47:52;;;;;;;;;;;;;;;19.42;97.83;98451.44;5079966;28;19925;-60
2022/05/26 06:50:18;;;;;;;;;;;;;;;19.49;94.30;98455.34;5081600;28;20499;-60
2022/05/26 06:52:44;;;;;;;;;;;;;;;19.76;94.77;98443.56;5083681;28;19921;-61
2022/05/26 06:55:11;;;;;;;;;;;;;;;19.64;94.65;98446.84;5082290;28;19975;-61
2022/05/26 06:57:39;;;;;;;;;;;;;;;19.53;93.32;98448.19;5080035;28;19988;-61
2022/05/26 07:00:06;;;;;;;;;;;;;;;19.67;93.34;98446.22;5079832;28;19995;-61
2022/05/26 07:02:34;;;;;;;;;;;;;;;19.74;93.65;98448.50;5083319;28;19924;-61
2022/05/26 07:05:01;;;;;;;;;;;;;;;19.90;93.30;98455.13;5083478;28;19995;-61
2022/05/26 07:07:27;;;;;;;;;;;;;;;19.98;93.81;98451.69;5080359;28;19929;-60
2022/05/26 07:09:54;;;;;;;;;;;;;;;20.10;92.40;98460.03;5079783;28;19939;-60
2022/05/26 07:12:21;;;;;;;;;;;;;;;20.22;92.49;98460.25;5081664;28;19925;-60
2022/05/26 07:14:47;;;;;;;;;;;;;;;20.28;92.73;98456.31;5083153;28;19925;-61
2022/05/26 07:17:14;;;;;;;;;;;;;;;20.37;90.86;98454.44;5081948;28;19932;-61
2022/05/26 07:19:43;;;;;;;;;;;;;;;20.51;89.79;98458.97;5079986;28;19928;-61
2022/05/26 07:22:10;;;;;;;;;;;;;;;20.58;88.84;98454.66;5079741;28;19925;-61
2022/05/26 07:24:36;;;;;;;;;;;;;;;20.57;88.87;98446.84;5083127;28;19984;-61
2022/05/26 07:27:03;;;;;;;;;;;;;;;20.41;90.80;98454.63;5083109;28;19946;-60
2022/05/26 07:29:29;;;;;;;;;;;;;;;20.48;90.58;98459.59;5079919;28;19924;-61
2022/05/26 07:31:56;;;;;;;;;;;;;;;20.49;91.26;98453.06;5079571;28;19925;-61
2022/05/26 07:34:23;;;;;;;;;;;;;;;20.48;91.68;98454.16;5081641;28;20056;-61
2022/05/26 07:42:19;;;;;;;;;;;;;;;20.86;87.41;98453.31;5080851;28;19924;-60
2022/05/26 07:44:47;;;;;;;;;;;;;;;20.98;86.53;98450.00;5082179;28;19928;-61
2022/05/26 07:47:13;;;;;;;;;;;;;;;21.21;84.25;98456.91;5081225;28;19935;-60
2022/05/26 07:49:41;;;;;;;;;;;;;;;21.34;83.07;98453.25;5079240;28;19932;-61
2022/05/26 07:52:09;;;;;;;;;;;;;;;21.37;80.32;98463.47;5079332;28;19928;-60
2022/05/26 07:54:38;;;;;;;;;;;;;;;21.28;82.86;98446.38;5081274;28;19963;-61
2022/05/26 07:57:05;;;;;;;;;;;;;;;21.20;81.31;98455.28;5082235;28;20349;-61
2022/05/26 07:59:32;;;;;;;;;;;;;;;21.46;79.51;98449.88;5070877;28;19935;-61
2022/05/26 08:01:59;;;;;;;;;;;;;;;21.54;75.88;98463.44;5078814;28;19925;-61
2022/05/26 08:04:25;;;;;;;;;;;;;;;21.54;76.80;98454.50;5081435;28;19951;-60
2022/05/26 08:06:51;;;;;;;;;;;;;;;21.49;76.89;98457.38;5082041;28;20563;-60
2022/05/26 08:09:20;;;;;;;;;;;;;;;21.35;77.59;98459.47;5080305;28;19971;-60
2022/05/26 08:11:47;;;;;;;;;;;;;;;21.15;72.51;98457.38;5078674;28;19943;-61
2022/05/26 08:14:13;;;;;;;;;;;;;;;21.03;74.71;98457.97;5079399;28;19976;-60
2022/05/26 08:16:40;;;;;;;;;;;;;;;21.13;77.30;98468.56;5081892;28;19952;-60
2022/05/26 08:19:06;;;;;;;;;;;;;;;21.16;76.64;98467.94;5081999;28;19984;-60
2022/05/26 08:21:33;;;;;;;;;;;;;;;21.23;77.35;98465.53;5078574;28;20008;-61
2022/05/26 08:24:00;;;;;;;;;;;;;;;21.31;74.39;98472.09;5078557;28;19967;-60
2022/05/26 08:26:28;;;;;;;;;;;;;;;21.42;74.92;98474.16;5080367;28;19928;-61
2022/05/26 08:28:55;;;;;;;;;;;;;;;21.37;73.21;98477.06;5082207;28;19960;-61
2022/05/26 08:31:21;;;;;;;;;;;;;;;21.06;72.97;98470.91;5079570;28;19924;-60
2022/05/26 08:33:47;;;;;;;;;;;;;;;21.16;76.60;98473.38;5078320;28;19960;-60
2022/05/26 08:36:15;;;;;;;;;;;;;;;21.42;74.94;98468.72;5079060;28;19991;-61
2022/05/26 08:38:43;;;;;;;;;;;;;;;21.53;74.08;98469.22;5081530;28;19988;-61
2022/05/26 08:41:16;;;;;;;;;;;;;;;21.72;73.10;98466.16;5080850;28;20684;-61
2022/05/26 08:43:45;;;;;;;;;;;;;;;21.70;72.71;98473.81;5077951;28;19935;-61
2022/05/26 08:46:13;;;;;;;;;;;;;;;21.63;72.01;98474.34;5078648;28;19932;-61
2022/05/26 08:48:48;;;;;;;;;;;;;;;21.66;74.15;98456.59;5081648;28;19924;-60
2022/05/26 08:51:19;;;;;;;;;;;;;;;21.96;73.04;98471.91;5080064;28;19931;-60
2022/05/26 08:53:45;;;;;;;;;;;;;;;22.06;71.51;98468.84;5077971;28;19924;-62
2022/05/26 08:56:16;;;;;;;;;;;;;;;22.04;70.26;98468.38;5078377;28;19925;-61
2022/05/26 08:58:46;;;;;;;;;;;;;;;21.87;70.75;98468.38;5084709;28;19928;-60
2022/05/26 09:01:14;;;;;;;;;;;;;;;21.70;65.86;98469.19;5083986;28;19924;-60
2022/05/26 09:03:41;;;;;;;;;;;;;;;21.78;70.13;98462.97;5081532;28;19932;-61
2022/05/26 09:06:08;;;;;;;;;;;;;;;21.78;70.14;98465.69;5081594;28;19948;-61
2022/05/26 09:14:23;;;;;;;;;;;;;;;21.81;69.64;98475.09;5007108;28;19954;-61
2022/05/26 09:16:49;;;;;;;;;;;;;;;21.96;70.58;98469.19;5084778;28;19996;-61
2022/05/26 09:19:17;;;;;;;;;;;;;;;21.86;69.32;98472.22;5083384;28;19925;-60
2022/05/26 09:21:43;;;;;;;;;;;;;;;21.79;70.12;98478.13;5080322;28;19980;-61
2022/05/26 09:24:17;;;;;;;;;;;;;;;21.76;67.74;98477.97;5081763;28;19925;-61
2022/05/26 09:26:45;;;;;;;;;;;;;;;21.76;68.89;98475.25;5083716;28;19931;-61
2022/05/26 09:29:12;;;;;;;;;;;;;;;21.67;68.66;98488.06;5083581;28;19947;-61
2022/05/26 09:31:45;;;;;;;;;;;;;;;21.64;69.21;98484.06;5080857;28;19932;-61
2022/05/26 09:34:17;;;;;;;;;;;;;;;21.68;69.80;98481.50;5082061;28;19932;-60
2022/05/26 09:36:45;;;;;;;;;;;;;;;21.73;69.25;98484.88;5084900;28;19936;-61
2022/05/26 09:39:12;;;;;;;;;;;;;;;21.70;67.05;98485.50;5083712;28;19924;-61
2022/05/26 09:41:42;;;;;;;;;;;;;;;21.71;69.97;98487.13;5081390;28;19982;-62
2022/05/26 09:44:24;;;;;;;;;;;;;;;21.64;69.67;98489.50;5081780;28;19925;-61
2022/05/26 09:46:54;;;;;;;;;;;;;;;21.74;67.66;98488.38;5084715;28;20001;-61
2022/05/26 09:49:23;;;;;;;;;;;;;;;21.76;68.79;98480.69;5082171;28;20038;-61
2022/05/26 09:51:49;;;;;;;;;;;;;;;21.82;69.32;98488.38;5081079;28;19951;-61
2022/05/26 09:54:21;;;;;;;;;;;;;;;21.85;68.82;98489.66;5082201;28;19924;-60
2022/05/26 09:56:48;;;;;;;;;;;;;;;22.00;68.51;98481.03;5084044;28;19928;-61
2022/05/26 09:59:25;;;;;;;;;;;;;;;22.05;68.28;98486.28;5082806;28;19924;-61
2022/05/26 10:02:00;;;;;;;;;;;;;;;21.88;66.57;98497.19;5080768;28;19952;-61
2022/05/26 10:04:36;;;;;;;;;;;;;;;21.87;69.53;98490.13;5083106;28;19931;-61
2022/05/26 10:07:05;;;;;;;;;;;;;;;21.77;70.20;98480.38;5084061;28;19991;-61
2022/05/26 10:09:37;;;;;;;;;;;;;;;21.97;69.34;98487.13;5072000;28;19956;-62
2022/05/26 10:12:07;;;;;;;;;;;;;;;21.95;65.35;98486.63;5080297;28;19935;-62
2022/05/26 10:14:47;;;;;;;;;;;;;;;21.75;70.37;98496.22;5072646;28;20012;-61
2022/05/26 10:17:19;;;;;;;;;;;;;;;21.69;71.59;98513.03;5081234;28;19975;-61
2022/05/26 10:19:58;;;;;;;;;;;;;;;21.54;69.51;98503.41;5083858;28;19920;-61
2022/05/26 10:22:30;;;;;;;;;;;;;;;21.30;68.35;98508.53;5081051;28;19963;-60
2022/05/26 10:25:01;;;;;;;;;;;;;;;21.29;71.45;98507.72;5080233;28;19984;-61
2022/05/26 10:27:46;;;;;;;;;;;;;;;21.28;69.30;98510.75;5083181;28;19959;-60
2022/05/26 10:30:23;;;;;;;;;;;;;;;21.21;71.01;98516.66;5082427;28;19924;-61
2022/05/26 10:32:55;;;;;;;;;;;;;;;21.19;70.30;98516.19;5079897;28;19948;-61
2022/05/26 10:35:24;;;;;;;;;;;;;;;21.12;71.24;98517.75;5081727;28;19956;-61
2022/05/26 10:38:11;;;;;;;;;;;;;;;21.06;72.37;98517.09;5083166;28;19992;-61
2022/05/26 10:40:43;;;;;;;;;;;;;;;21.24;74.04;98524.19;5068930;28;19964;-61
2022/05/26 10:43:12;;;;;;;;;;;;;;;21.27;74.51;98528.16;5084869;28;19952;-61
2022/05/26 10:45:39;;;;;;;;;;;;;;;21.09;72.43;98523.84;5079433;28;19925;-61
2022/05/26 10:48:09;;;;;;;;;;;;;;;21.02;74.75;98524.25;5079474;28;19943;-61
2022/05/26 10:50:38;;;;;;;;;;;;;;;20.95;75.41;98523.94;5071858;28;19920;-61
2022/05/26 10:53:08;;;;;;;;;;;;;;;21.02;77.22;98530.50;5079435;28;19925;-60
2022/05/26 10:55:37;;;;;;;;;;;;;;;21.02;76.50;98521.53;5071275;28;19951;-60
2022/05/26 10:58:07;;;;;;;;;;;;;;;21.02;77.13;98524.25;5078000;28;19924;-60
2022/05/26 11:00:33;;;;;;;;;;;;;;;21.19;76.42;98518.91;5071051;28;19993;-60
2022/05/26 11:03:08;;;;;;;;;;;;;;;21.16;77.71;98521.47;5079146;28;19924;-60
2022/05/26 11:05:39;;;;;;;;;;;;;;;21.10;77.27;98526.25;5071174;28;19933;-60
2022/05/26 11:08:14;;;;;;;;;;;;;;;21.22;77.02;98517.47;5078899;28;20010;-61
2022/05/26 11:10:44;;;;;;;;;;;;;;;21.42;75.46;98522.28;5072173;28;19960;-61
2022/05/26 11:13:15;;;;;;;;;;;;;;;21.50;75.50;98524.22;5084156;28;20007;-61
2022/05/26 11:18:36;;;;;;;;;;;;;;;21.37;76.84;98519.72;5081276;28;21346;-61
2022/05/26 11:21:04;;;;;;;;;;;;;;;21.42;77.39;98517.66;5081035;28;20026;-62
2022/05/26 11:23:32;;;;;;;;;;;;;;;21.44;77.46;98520.06;5070595;28;19921;-61
2022/05/26 11:26:00;;;;;;;;;;;;;;;21.48;77.60;98521.00;5077898;28;20015;-61
2022/05/26 11:28:31;;;;;;;;;;;;;;;21.62;77.72;98521.66;5081543;28;19987;-61
2022/05/26 11:36:48;;;;;;;;;;;;;;;21.69;74.94;98522.00;4988924;28;19926;-61
2022/05/26 11:39:19;;;;;;;;;;;;;;;21.59;75.47;98521.50;5060805;28;19927;-61
2022/05/26 11:41:48;;;;;;;;;;;;;;;21.50;76.18;98527.75;5078199;28;19960;-60
2022/05/26 11:44:30;;;;;;;;;;;;;;;21.42;78.04;98516.84;5079241;28;19925;-60
2022/05/26 11:47:12;;;;;;;;;;;;;;;21.53;76.94;98512.72;5081445;28;19993;-61
2022/05/26 11:50:01;;;;;;;;;;;;;;;21.72;72.44;98512.38;5071087;28;19996;-61
2022/05/26 11:52:48;;;;;;;;;;;;;;;21.66;72.72;98503.59;5080907;28;19924;-61
2022/05/26 11:55:17;;;;;;;;;;;;;;;21.51;70.01;98504.84;5080081;28;19976;-61
2022/05/26 11:57:51;;;;;;;;;;;;;;;21.57;70.46;98512.88;5078078;28;19984;-61
2022/05/26 12:00:19;;;;;;;;;;;;;;;21.57;69.11;98518.31;5079400;28;19928;-61
2022/05/26 12:02:50;;;;;;;;;;;;;;;21.55;66.85;98521.34;5081549;28;19924;-61
2022/05/26 12:05:35;;;;;;;;;;;;;;;21.46;72.03;98512.38;5079863;28;19920;-62
2022/05/26 12:08:05;;;;;;;;;;;;;;;21.58;71.36;98511.72;5077003;28;19931;-60
2022/05/26 12:10:38;;;;;;;;;;;;;;;21.50;71.50;98514.16;5069792;28;19924;-61
2022/05/26 12:13:24;;;;;;;;;;;;;;;21.61;71.53;98508.38;5083146;28;19959;-60
2022/05/26 12:16:05;;;;;;;;;;;;;;;21.62;69.62;98515.41;5072464;28;19920;-60
2022/05/26 12:18:37;;;;;;;;;;;;;;;21.64;68.35;98522.13;5081304;28;19960;-60
2022/05/26 12:21:11;;;;;;;;;;;;;;;21.65;68.50;98521.03;5081228;28;19924;-61
2022/05/26 12:23:38;;;;;;;;;;;;;;;21.61;68.68;98517.34;5070571;28;19993;-60
2022/05/26 12:26:24;;;;;;;;;;;;;;;21.49;68.74;98523.41;5077791;28;20013;-60
2022/05/26 12:28:50;;;;;;;;;;;;;;;21.52;70.70;98522.78;5072113;28;19980;-60
2022/05/26 12:31:17;;;;;;;;;;;;;;;21.73;69.30;98525.66;5080238;28;19980;-60
2022/05/26 12:33:54;;;;;;;;;;;;;;;21.60;69.18;98518.44;5085464;28;19935;-60
2022/05/26 12:36:23;;;;;;;;;;;;;;;21.57;69.46;98515.59;5083446;28;19928;-60
2022/05/26 12:38:56;;;;;;;;;;;;;;;21.61;70.58;98514.63;5082151;28;19968;-61
2022/05/26 12:41:27;;;;;;;;;;;;;;;21.65;70.46;98512.06;5083368;28;19980;-61
2022/05/26 12:44:19;;;;;;;;;;;;;;;21.56;69.55;98516.69;5084668;28;19983;-61
2022/05/26 12:46:52;;;;;;;;;;;;;;;21.50;68.68;98510.63;5075815;28;19921;-60
2022/05/26 12:49:27;;;;;;;;;;;;;;;21.47;68.62;98520.22;5083665;28;19980;-61
2022/05/26 12:52:05;;;;;;;;;;;;;;;21.39;66.51;98512.84;5085540;28;19956;-61
2022/05/26 12:54:39;;;;;;;;;;;;;;;21.38;67.28;98516.69;5073710;28;19929;-61
2022/05/26 12:57:09;;;;;;;;;;;;;;;21.52;65.62;98511.91;5081561;28;19980;-61
2022/05/26 12:59:35;;;;;;;;;;;;;;;21.47;68.51;98514.78;5073995;28;19924;-60
2022/05/26 13:02:02;;;;;;;;;;;;;;;21.43;67.97;98511.09;5081697;28;20005;-60
2022/05/26 13:04:32;;;;;;;;;;;;;;;21.41;65.81;98516.06;5084883;28;19931;-61
2022/05/26 13:07:00;;;;;;;;;;;;;;;21.44;68.10;98510.00;5085169;28;19931;-60
2022/05/26 13:09:30;;;;;;;;;;;;;;;21.56;65.90;98514.78;5082355;28;19929;-61
2022/05/26 13:11:59;;;;;;;;;;;;;;;21.55;65.57;98510.47;5081479;28;19996;-61
2022/05/26 13:14:31;;;;;;;;;;;;;;;21.52;66.77;98506.47;5083873;28;19983;-60
2022/05/26 13:16:58;;;;;;;;;;;;;;;21.53;65.81;98508.06;5084952;28;19931;-61
2022/05/26 13:19:24;;;;;;;;;;;;;;;21.59;66.14;98502.47;5082123;28;19980;-61
2022/05/26 13:21:52;;;;;;;;;;;;;;;21.62;65.71;98502.63;5081606;28;19928;-61
2022/05/26 13:24:20;;;;;;;;;;;;;;;21.68;65.68;98498.63;5083012;28;20028;-61
2022/05/26 13:26:49;;;;;;;;;;;;;;;21.74;66.27;98501.97;5085026;28;19931;-62
2022/05/26 13:29:20;;;;;;;;;;;;;;;21.95;65.01;98492.06;5083724;28;19928;-62
2022/05/26 13:34:33;;;;;;;;;;;;;;;21.80;63.60;98496.06;5073519;28;19925;-62
2022/05/26 13:37:04;;;;;;;;;;;;;;;21.88;63.34;98491.75;5080941;28;19999;-62
2022/05/26 13:39:30;;;;;;;;;;;;;;;21.89;60.87;98493.34;5084192;28;19963;-60